Henderson, AR (72544)

1:55 AM CDT on March 27, 2017 (GMT -0500)
Henderson | | Change Station

Elev 925 ft 36.38 °N, 92.17 °W | Updated 31 seconds ago

Rain
Rain
60.0 °F
Feels Like 60.0 °F
N
2.0
Wind Variable Wind from SSW

Today
High -- | Low -- °F
--% Chance of Precip.
Yesterday
High -- | Low -- °F
Precip. -- in
Pressure 29.83 in
Visibility 10.0 miles
Clouds Few 7500 ft
Mostly Cloudy 10000 ft
Mostly Cloudy 12000 ft
Dew Point 51 °F
Humidity 74%
Rainfall 0.00 in
Snow Depth Not available.
7:01 AM 7:27 PM
Waning Crescent, 1% visible
METAR KBPK 270553Z AUTO 13003KT 10SM FEW075 BKN100 BKN120 16/11 A2985 RMK AO2 SLP101 T01610106 10194 20161 402170089 58005 TSNO $
Pressure 29.83 in
Visibility 10.0 miles
Clouds Few 7500 ft
Mostly Cloudy 10000 ft
Mostly Cloudy 12000 ft
Dew Point 51 °F
Humidity 74%
Rainfall 0.00 in
Snow Depth Not available.
7:01 AM 7:27 PM
Waning Crescent, 1% visible
METAR KBPK 270553Z AUTO 13003KT 10SM FEW075 BKN100 BKN120 16/11 A2985 RMK AO2 SLP101 T01610106 10194 20161 402170089 58005 TSNO $

Get Severe Weather Alerts

Thanks for signing up!

Be on the lookout for a verification email in your inbox.

You'll start receiving the daily forecast at 8 AM.

×

10-Day Weather Forecast

Almanac

Astronomy

Mar. 27, 2017 Rise Set
Actual Time
Civil Twilight
Nautical Twilight
Astronomical Twilight
Moon
Length of Visible Light
Length of Day
Tomorrow will be .
, % of the Moon is Illuminated

Today's Extremes

State Highs State Lows

Community

WunderPhotos

Upload Photos

1,962,540 photos uploaded!

WunderBlog® & News

Nearby

Air Quality

  Air Quality AQ Index Pollutant
Not available.

Snow Depth

Station Depth Elevation

Earthquake Activity

City Distance Mag. Time & Date
Minimum magnitude displayed is 2.5.

Earthquake Activity

City Distance Mag. Time & Date
Minimum magnitude displayed is 2.5.

Coastal Water Temperatures

Place Temperature

Stations

Nearby Weather Stations

Station Location Temp. Windchill Dew Point Humidity Wind Precip. Elev Updated Type
                   

Watches & Warnings

There are currently no watches in effect.